sensor_id;sensor_type;location;lat;lon;timestamp;temperature;humidity
20598;DHT22;10457;48.770;11.446;2022-12-26T00:01:40;5.90;99.90
20598;DHT22;10457;48.770;11.446;2022-12-26T00:07:05;5.90;99.90
20598;DHT22;10457;48.770;11.446;2022-12-26T00:12:28;5.90;99.90
20598;DHT22;10457;48.770;11.446;2022-12-26T00:17:49;6.00;99.90
20598;DHT22;10457;48.770;11.446;2022-12-26T00:23:11;6.00;99.90
20598;DHT22;10457;48.770;11.446;2022-12-26T00:28:34;6.10;99.90
20598;DHT22;10457;48.770;11.446;2022-12-26T00:33:56;6.20;99.90
20598;DHT22;10457;48.770;11.446;2022-12-26T00:39:17;6.20;99.90
20598;DHT22;10457;48.770;11.446;2022-12-26T00:44:40;6.20;99.90
20598;DHT22;10457;48.770;11.446;2022-12-26T00:50:01;6.20;99.90
20598;DHT22;10457;48.770;11.446;2022-12-26T00:55:22;6.30;99.90
20598;DHT22;10457;48.770;11.446;2022-12-26T01:00:45;6.30;99.90
20598;DHT22;10457;48.770;11.446;2022-12-26T01:06:08;6.40;99.90
20598;DHT22;10457;48.770;11.446;2022-12-26T01:11:29;6.60;99.90
20598;DHT22;10457;48.770;11.446;2022-12-26T01:17:04;6.90;99.90
20598;DHT22;10457;48.770;11.446;2022-12-26T01:22:26;7.10;99.90
20598;DHT22;10457;48.770;11.446;2022-12-26T01:27:48;7.20;99.90
20598;DHT22;10457;48.770;11.446;2022-12-26T01:33:12;7.20;99.90
20598;DHT22;10457;48.770;11.446;2022-12-26T01:38:33;7.30;99.90
20598;DHT22;10457;48.770;11.446;2022-12-26T01:43:57;7.30;99.90
20598;DHT22;10457;48.770;11.446;2022-12-26T01:49:25;7.30;99.90
20598;DHT22;10457;48.770;11.446;2022-12-26T01:54:51;7.40;99.90
20598;DHT22;10457;48.770;11.446;2022-12-26T02:00:15;7.50;99.90
20598;DHT22;10457;48.770;11.446;2022-12-26T02:05:38;7.40;99.90
20598;DHT22;10457;48.770;11.446;2022-12-26T02:11:06;7.50;99.90
20598;DHT22;10457;48.770;11.446;2022-12-26T02:16:33;7.70;99.90
20598;DHT22;10457;48.770;11.446;2022-12-26T02:22:29;7.80;99.90
20598;DHT22;10457;48.770;11.446;2022-12-26T02:28:28;7.80;99.90
20598;DHT22;10457;48.770;11.446;2022-12-26T02:34:11;7.70;99.90
20598;DHT22;10457;48.770;11.446;2022-12-26T02:39:49;7.60;99.90
20598;DHT22;10457;48.770;11.446;2022-12-26T02:45:23;7.40;99.90
20598;DHT22;10457;48.770;11.446;2022-12-26T02:51:32;7.20;99.90
20598;DHT22;10457;48.770;11.446;2022-12-26T02:57:18;6.80;99.90
20598;DHT22;10457;48.770;11.446;2022-12-26T03:03:01;6.50;99.90
20598;DHT22;10457;48.770;11.446;2022-12-26T03:08:47;6.40;99.90
20598;DHT22;10457;48.770;11.446;2022-12-26T03:14:30;6.30;99.90
20598;DHT22;10457;48.770;11.446;2022-12-26T03:19:58;6.20;99.90
20598;DHT22;10457;48.770;11.446;2022-12-26T03:25:29;6.20;99.90
20598;DHT22;10457;48.770;11.446;2022-12-26T03:31:14;6.10;99.90
20598;DHT22;10457;48.770;11.446;2022-12-26T03:36:47;6.00;99.90
20598;DHT22;10457;48.770;11.446;2022-12-26T03:42:22;6.00;99.90
20598;DHT22;10457;48.770;11.446;2022-12-26T03:48:15;6.00;99.90
20598;DHT22;10457;48.770;11.446;2022-12-26T03:54:03;6.20;99.90
20598;DHT22;10457;48.770;11.446;2022-12-26T03:59:51;6.30;99.90
20598;DHT22;10457;48.770;11.446;2022-12-26T04:05:36;6.20;99.90
20598;DHT22;10457;48.770;11.446;2022-12-26T04:11:27;6.30;99.90
20598;DHT22;10457;48.770;11.446;2022-12-26T04:17:13;6.30;99.90
20598;DHT22;10457;48.770;11.446;2022-12-26T04:23:02;6.50;99.90
20598;DHT22;10457;48.770;11.446;2022-12-26T04:28:43;6.70;99.90
20598;DHT22;10457;48.770;11.446;2022-12-26T04:34:26;6.80;99.90
20598;DHT22;10457;48.770;11.446;2022-12-26T04:40:10;6.80;99.90
20598;DHT22;10457;48.770;11.446;2022-12-26T04:45:53;6.70;99.90
20598;DHT22;10457;48.770;11.446;2022-12-26T04:51:17;6.60;99.90
20598;DHT22;10457;48.770;11.446;2022-12-26T04:56:38;6.50;99.90
20598;DHT22;10457;48.770;11.446;2022-12-26T05:02:00;6.60;99.90
20598;DHT22;10457;48.770;11.446;2022-12-26T05:07:40;6.60;99.90
20598;DHT22;10457;48.770;11.446;2022-12-26T05:13:20;6.50;99.90
20598;DHT22;10457;48.770;11.446;2022-12-26T05:18:42;6.50;99.90
20598;DHT22;10457;48.770;11.446;2022-12-26T05:24:22;6.40;99.90
20598;DHT22;10457;48.770;11.446;2022-12-26T05:30:08;6.30;99.90
20598;DHT22;10457;48.770;11.446;2022-12-26T05:35:31;6.20;99.90
20598;DHT22;10457;48.770;11.446;2022-12-26T05:40:54;6.30;99.90
20598;DHT22;10457;48.770;11.446;2022-12-26T05:46:15;6.30;99.90
20598;DHT22;10457;48.770;11.446;2022-12-26T05:51:37;6.40;99.90
20598;DHT22;10457;48.770;11.446;2022-12-26T05:57:00;6.30;99.90
20598;DHT22;10457;48.770;11.446;2022-12-26T06:02:22;6.30;99.90
20598;DHT22;10457;48.770;11.446;2022-12-26T06:07:44;6.30;99.90
20598;DHT22;10457;48.770;11.446;2022-12-26T06:13:07;6.20;99.90
20598;DHT22;10457;48.770;11.446;2022-12-26T06:18:28;6.30;99.90
20598;DHT22;10457;48.770;11.446;2022-12-26T06:23:50;6.30;99.90
20598;DHT22;10457;48.770;11.446;2022-12-26T06:29:13;6.30;99.90
20598;DHT22;10457;48.770;11.446;2022-12-26T06:34:34;6.30;99.90
20598;DHT22;10457;48.770;11.446;2022-12-26T06:39:56;6.40;99.90
20598;DHT22;10457;48.770;11.446;2022-12-26T06:45:19;6.30;99.90
20598;DHT22;10457;48.770;11.446;2022-12-26T06:50:41;6.40;99.90
20598;DHT22;10457;48.770;11.446;2022-12-26T06:56:08;6.30;99.90
20598;DHT22;10457;48.770;11.446;2022-12-26T07:01:33;6.40;99.90
20598;DHT22;10457;48.770;11.446;2022-12-26T07:06:55;6.30;99.90
20598;DHT22;10457;48.770;11.446;2022-12-26T07:12:16;6.20;99.90
20598;DHT22;10457;48.770;11.446;2022-12-26T07:17:41;6.30;99.90
20598;DHT22;10457;48.770;11.446;2022-12-26T07:23:02;6.30;99.90
20598;DHT22;10457;48.770;11.446;2022-12-26T07:28:24;6.30;99.90
20598;DHT22;10457;48.770;11.446;2022-12-26T07:33:47;6.40;99.90
20598;DHT22;10457;48.770;11.446;2022-12-26T07:39:11;6.40;99.90
20598;DHT22;10457;48.770;11.446;2022-12-26T07:44:33;6.40;99.90
20598;DHT22;10457;48.770;11.446;2022-12-26T07:49:56;6.50;99.90
20598;DHT22;10457;48.770;11.446;2022-12-26T07:55:18;6.50;99.90
20598;DHT22;10457;48.770;11.446;2022-12-26T08:00:39;6.60;99.90
20598;DHT22;10457;48.770;11.446;2022-12-26T08:06:02;6.70;99.90
20598;DHT22;10457;48.770;11.446;2022-12-26T08:11:24;6.80;99.90
20598;DHT22;10457;48.770;11.446;2022-12-26T08:16:45;6.80;99.90
20598;DHT22;10457;48.770;11.446;2022-12-26T08:22:08;7.00;99.90
20598;DHT22;10457;48.770;11.446;2022-12-26T08:27:30;7.20;99.90
20598;DHT22;10457;48.770;11.446;2022-12-26T08:32:51;7.40;99.90
20598;DHT22;10457;48.770;11.446;2022-12-26T08:38:14;7.60;99.90
20598;DHT22;10457;48.770;11.446;2022-12-26T08:43:36;7.80;99.90
20598;DHT22;10457;48.770;11.446;2022-12-26T08:48:57;7.80;99.90
20598;DHT22;10457;48.770;11.446;2022-12-26T08:54:20;8.10;99.90
20598;DHT22;10457;48.770;11.446;2022-12-26T08:59:42;8.30;99.90
20598;DHT22;10457;48.770;11.446;2022-12-26T09:05:04;8.70;99.90
20598;DHT22;10457;48.770;11.446;2022-12-26T09:10:28;9.30;99.90
20598;DHT22;10457;48.770;11.446;2022-12-26T09:15:49;9.60;99.90
20598;DHT22;10457;48.770;11.446;2022-12-26T09:21:12;9.90;99.90
20598;DHT22;10457;48.770;11.446;2022-12-26T09:26:36;10.00;99.90
20598;DHT22;10457;48.770;11.446;2022-12-26T09:32:00;10.00;99.90
20598;DHT22;10457;48.770;11.446;2022-12-26T09:37:22;9.80;99.90
20598;DHT22;10457;48.770;11.446;2022-12-26T09:42:59;9.60;99.90
20598;DHT22;10457;48.770;11.446;2022-12-26T09:48:28;9.40;99.90
20598;DHT22;10457;48.770;11.446;2022-12-26T09:53:53;9.50;99.90
20598;DHT22;10457;48.770;11.446;2022-12-26T09:59:18;9.60;99.90
20598;DHT22;10457;48.770;11.446;2022-12-26T10:04:43;9.80;99.90
20598;DHT22;10457;48.770;11.446;2022-12-26T10:10:09;9.80;99.90
20598;DHT22;10457;48.770;11.446;2022-12-26T10:15:39;9.70;99.90
20598;DHT22;10457;48.770;11.446;2022-12-26T10:21:27;9.60;99.90
20598;DHT22;10457;48.770;11.446;2022-12-26T10:26:55;9.30;99.90
20598;DHT22;10457;48.770;11.446;2022-12-26T10:32:32;9.20;99.90
20598;DHT22;10457;48.770;11.446;2022-12-26T10:38:01;9.20;99.90
20598;DHT22;10457;48.770;11.446;2022-12-26T10:43:27;9.30;99.90
20598;DHT22;10457;48.770;11.446;2022-12-26T10:48:52;9.50;99.90
20598;DHT22;10457;48.770;11.446;2022-12-26T10:54:15;9.50;99.90
20598;DHT22;10457;48.770;11.446;2022-12-26T10:59:41;9.40;99.90
20598;DHT22;10457;48.770;11.446;2022-12-26T11:05:07;9.30;99.90
20598;DHT22;10457;48.770;11.446;2022-12-26T11:10:29;9.30;99.90
20598;DHT22;10457;48.770;11.446;2022-12-26T11:15:52;9.10;99.90
20598;DHT22;10457;48.770;11.446;2022-12-26T11:21:21;9.00;99.90
20598;DHT22;10457;48.770;11.446;2022-12-26T11:26:45;9.10;99.90
20598;DHT22;10457;48.770;11.446;2022-12-26T11:32:16;9.10;99.90
20598;DHT22;10457;48.770;11.446;2022-12-26T11:37:41;9.20;99.90
20598;DHT22;10457;48.770;11.446;2022-12-26T11:43:06;9.10;99.90
20598;DHT22;10457;48.770;11.446;2022-12-26T11:48:35;9.10;99.90
20598;DHT22;10457;48.770;11.446;2022-12-26T11:54:12;9.00;99.90
20598;DHT22;10457;48.770;11.446;2022-12-26T11:59:40;9.10;99.90
20598;DHT22;10457;48.770;11.446;2022-12-26T12:05:11;9.20;99.90
20598;DHT22;10457;48.770;11.446;2022-12-26T12:10:52;9.20;99.90
20598;DHT22;10457;48.770;11.446;2022-12-26T12:16:36;9.20;99.90
20598;DHT22;10457;48.770;11.446;2022-12-26T12:22:16;9.30;99.90
20598;DHT22;10457;48.770;11.446;2022-12-26T12:27:50;9.50;99.90
20598;DHT22;10457;48.770;11.446;2022-12-26T12:33:28;9.50;99.90
20598;DHT22;10457;48.770;11.446;2022-12-26T12:39:01;9.40;99.90
20598;DHT22;10457;48.770;11.446;2022-12-26T12:44:44;9.40;99.90
20598;DHT22;10457;48.770;11.446;2022-12-26T12:50:19;9.40;99.90
20598;DHT22;10457;48.770;11.446;2022-12-26T12:55:54;9.50;99.90
20598;DHT22;10457;48.770;11.446;2022-12-26T13:01:25;9.30;99.90
20598;DHT22;10457;48.770;11.446;2022-12-26T13:06:51;9.50;99.90
20598;DHT22;10457;48.770;11.446;2022-12-26T13:12:17;9.50;99.90
20598;DHT22;10457;48.770;11.446;2022-12-26T13:17:50;9.40;99.90
20598;DHT22;10457;48.770;11.446;2022-12-26T13:23:18;9.50;99.90
20598;DHT22;10457;48.770;11.446;2022-12-26T13:29:03;9.40;99.90
20598;DHT22;10457;48.770;11.446;2022-12-26T13:34:29;9.40;99.90
20598;DHT22;10457;48.770;11.446;2022-12-26T13:39:51;9.30;99.90
20598;DHT22;10457;48.770;11.446;2022-12-26T13:45:45;9.40;99.90
20598;DHT22;10457;48.770;11.446;2022-12-26T13:51:43;9.40;99.90
20598;DHT22;10457;48.770;11.446;2022-12-26T13:57:34;9.40;99.90
20598;DHT22;10457;48.770;11.446;2022-12-26T14:03:23;9.20;99.90
20598;DHT22;10457;48.770;11.446;2022-12-26T14:09:11;9.30;99.90
20598;DHT22;10457;48.770;11.446;2022-12-26T14:14:50;9.40;99.90
20598;DHT22;10457;48.770;11.446;2022-12-26T14:20:32;9.40;99.90
20598;DHT22;10457;48.770;11.446;2022-12-26T14:26:03;9.30;99.90
20598;DHT22;10457;48.770;11.446;2022-12-26T14:31:33;9.30;99.90
20598;DHT22;10457;48.770;11.446;2022-12-26T14:37:03;9.30;99.90
20598;DHT22;10457;48.770;11.446;2022-12-26T14:43:02;9.20;99.90
20598;DHT22;10457;48.770;11.446;2022-12-26T14:48:48;9.10;99.90
20598;DHT22;10457;48.770;11.446;2022-12-26T14:54:38;9.20;99.90
20598;DHT22;10457;48.770;11.446;2022-12-26T15:00:24;9.20;99.90
20598;DHT22;10457;48.770;11.446;2022-12-26T15:05:50;9.20;99.90
20598;DHT22;10457;48.770;11.446;2022-12-26T15:11:42;9.30;99.90
20598;DHT22;10457;48.770;11.446;2022-12-26T15:17:26;9.30;99.90
20598;DHT22;10457;48.770;11.446;2022-12-26T15:23:22;9.30;99.90
20598;DHT22;10457;48.770;11.446;2022-12-26T15:29:24;9.20;99.90
20598;DHT22;10457;48.770;11.446;2022-12-26T15:35:00;9.30;99.90
20598;DHT22;10457;48.770;11.446;2022-12-26T15:40:34;9.30;99.90
20598;DHT22;10457;48.770;11.446;2022-12-26T15:46:01;9.30;99.90
20598;DHT22;10457;48.770;11.446;2022-12-26T15:51:39;9.30;99.90
20598;DHT22;10457;48.770;11.446;2022-12-26T15:57:12;9.20;99.90
20598;DHT22;10457;48.770;11.446;2022-12-26T16:02:42;9.30;99.90
20598;DHT22;10457;48.770;11.446;2022-12-26T16:14:13;9.30;99.90
20598;DHT22;10457;48.770;11.446;2022-12-26T16:19:46;9.30;99.90
20598;DHT22;10457;48.770;11.446;2022-12-26T16:25:12;9.30;99.90
20598;DHT22;10457;48.770;11.446;2022-12-26T16:30:36;9.30;99.90
20598;DHT22;10457;48.770;11.446;2022-12-26T16:35:58;9.30;99.90
20598;DHT22;10457;48.770;11.446;2022-12-26T16:41:23;9.30;99.90
20598;DHT22;10457;48.770;11.446;2022-12-26T16:46:45;9.30;99.90
20598;DHT22;10457;48.770;11.446;2022-12-26T16:52:09;9.30;99.90
20598;DHT22;10457;48.770;11.446;2022-12-26T16:57:54;9.30;99.90
20598;DHT22;10457;48.770;11.446;2022-12-26T17:03:25;9.30;99.90
20598;DHT22;10457;48.770;11.446;2022-12-26T17:08:50;9.30;99.90
20598;DHT22;10457;48.770;11.446;2022-12-26T17:14:19;9.30;99.90
20598;DHT22;10457;48.770;11.446;2022-12-26T17:19:42;9.30;99.90
20598;DHT22;10457;48.770;11.446;2022-12-26T17:25:22;9.30;99.90
20598;DHT22;10457;48.770;11.446;2022-12-26T17:30:47;9.30;99.90
20598;DHT22;10457;48.770;11.446;2022-12-26T17:36:13;9.30;99.90
20598;DHT22;10457;48.770;11.446;2022-12-26T17:41:35;9.30;99.90
20598;DHT22;10457;48.770;11.446;2022-12-26T17:47:19;9.30;99.90
20598;DHT22;10457;48.770;11.446;2022-12-26T17:52:41;9.30;99.90
20598;DHT22;10457;48.770;11.446;2022-12-26T17:58:03;9.30;99.90
20598;DHT22;10457;48.770;11.446;2022-12-26T18:03:26;9.40;99.90
20598;DHT22;10457;48.770;11.446;2022-12-26T18:08:48;9.30;99.90
20598;DHT22;10457;48.770;11.446;2022-12-26T18:14:12;9.30;99.90
20598;DHT22;10457;48.770;11.446;2022-12-26T18:19:35;9.30;99.90
20598;DHT22;10457;48.770;11.446;2022-12-26T18:24:56;9.30;99.90
20598;DHT22;10457;48.770;11.446;2022-12-26T18:30:20;9.40;99.90
20598;DHT22;10457;48.770;11.446;2022-12-26T18:35:44;9.30;99.90
20598;DHT22;10457;48.770;11.446;2022-12-26T18:41:09;9.40;99.90
20598;DHT22;10457;48.770;11.446;2022-12-26T18:46:34;9.30;99.90
20598;DHT22;10457;48.770;11.446;2022-12-26T18:51:57;9.30;99.90
20598;DHT22;10457;48.770;11.446;2022-12-26T18:57:19;9.30;99.90
20598;DHT22;10457;48.770;11.446;2022-12-26T19:02:41;9.30;99.90
20598;DHT22;10457;48.770;11.446;2022-12-26T19:08:04;9.20;99.90
20598;DHT22;10457;48.770;11.446;2022-12-26T19:13:25;9.20;99.90
20598;DHT22;10457;48.770;11.446;2022-12-26T19:18:48;9.20;99.90
20598;DHT22;10457;48.770;11.446;2022-12-26T19:24:14;9.10;99.90
20598;DHT22;10457;48.770;11.446;2022-12-26T19:29:36;9.10;99.90
20598;DHT22;10457;48.770;11.446;2022-12-26T19:34:58;9.10;99.90
20598;DHT22;10457;48.770;11.446;2022-12-26T19:40:20;9.20;99.90
20598;DHT22;10457;48.770;11.446;2022-12-26T19:45:42;9.20;99.90
20598;DHT22;10457;48.770;11.446;2022-12-26T19:51:06;9.20;99.90
20598;DHT22;10457;48.770;11.446;2022-12-26T19:56:29;9.10;99.90
20598;DHT22;10457;48.770;11.446;2022-12-26T20:01:50;8.90;99.90
20598;DHT22;10457;48.770;11.446;2022-12-26T20:07:12;8.70;99.90
20598;DHT22;10457;48.770;11.446;2022-12-26T20:12:35;8.70;99.90
20598;DHT22;10457;48.770;11.446;2022-12-26T20:17:56;8.60;99.90
20598;DHT22;10457;48.770;11.446;2022-12-26T20:23:18;8.60;99.90
20598;DHT22;10457;48.770;11.446;2022-12-26T20:28:41;8.60;99.90
20598;DHT22;10457;48.770;11.446;2022-12-26T20:34:03;8.60;99.90
20598;DHT22;10457;48.770;11.446;2022-12-26T20:39:26;8.60;99.90
20598;DHT22;10457;48.770;11.446;2022-12-26T20:44:49;8.60;99.90
20598;DHT22;10457;48.770;11.446;2022-12-26T20:50:10;8.60;99.90
20598;DHT22;10457;48.770;11.446;2022-12-26T20:55:34;8.60;99.90
20598;DHT22;10457;48.770;11.446;2022-12-26T21:00:59;8.50;99.90
20598;DHT22;10457;48.770;11.446;2022-12-26T21:06:23;8.50;99.90
20598;DHT22;10457;48.770;11.446;2022-12-26T21:11:45;8.40;99.90
20598;DHT22;10457;48.770;11.446;2022-12-26T21:17:08;8.30;99.90
20598;DHT22;10457;48.770;11.446;2022-12-26T21:22:29;8.20;99.90
20598;DHT22;10457;48.770;11.446;2022-12-26T21:27:51;8.20;99.90
20598;DHT22;10457;48.770;11.446;2022-12-26T21:33:14;8.20;99.90
20598;DHT22;10457;48.770;11.446;2022-12-26T21:38:35;8.10;99.90
20598;DHT22;10457;48.770;11.446;2022-12-26T21:43:57;8.00;99.90
20598;DHT22;10457;48.770;11.446;2022-12-26T21:49:20;8.00;99.90
20598;DHT22;10457;48.770;11.446;2022-12-26T21:54:41;8.10;99.90
20598;DHT22;10457;48.770;11.446;2022-12-26T22:00:20;8.00;99.90
20598;DHT22;10457;48.770;11.446;2022-12-26T22:05:44;8.00;99.90
20598;DHT22;10457;48.770;11.446;2022-12-26T22:11:12;8.00;99.90
20598;DHT22;10457;48.770;11.446;2022-12-26T22:16:55;8.00;99.90
20598;DHT22;10457;48.770;11.446;2022-12-26T22:22:19;8.00;99.90
20598;DHT22;10457;48.770;11.446;2022-12-26T22:33:24;8.00;99.90
20598;DHT22;10457;48.770;11.446;2022-12-26T22:38:49;7.90;99.90
20598;DHT22;10457;48.770;11.446;2022-12-26T22:44:12;7.90;99.90
20598;DHT22;10457;48.770;11.446;2022-12-26T22:49:34;7.90;99.90
20598;DHT22;10457;48.770;11.446;2022-12-26T22:54:57;7.90;99.90
20598;DHT22;10457;48.770;11.446;2022-12-26T23:00:19;7.90;99.90
20598;DHT22;10457;48.770;11.446;2022-12-26T23:05:43;7.90;99.90
20598;DHT22;10457;48.770;11.446;2022-12-26T23:11:07;7.80;99.90
20598;DHT22;10457;48.770;11.446;2022-12-26T23:16:34;7.80;99.90
20598;DHT22;10457;48.770;11.446;2022-12-26T23:22:00;7.80;99.90
20598;DHT22;10457;48.770;11.446;2022-12-26T23:27:23;7.70;99.90
20598;DHT22;10457;48.770;11.446;2022-12-26T23:33:02;7.70;93.90
20598;DHT22;10457;48.770;11.446;2022-12-26T23:38:23;7.50;89.80
20598;DHT22;10457;48.770;11.446;2022-12-26T23:43:46;7.50;88.20
20598;DHT22;10457;48.770;11.446;2022-12-26T23:49:11;7.40;87.10
20598;DHT22;10457;48.770;11.446;2022-12-26T23:54:32;7.40;89.10
20598;DHT22;10457;48.770;11.446;2022-12-26T23:59:55;7.30;91.60
